createdAt,value
2024-03-12T00:01:10.868Z,94248.50
2024-03-12T00:03:44.617Z,94254.38
2024-03-12T00:06:12.467Z,94249.09
2024-03-12T00:08:41.205Z,94257.06
2024-03-12T00:11:09.419Z,94243.72
2024-03-12T00:13:36.307Z,94255.56
2024-03-12T00:16:03.665Z,94254.34
2024-03-12T00:18:34.331Z,94260.63
2024-03-12T00:21:02.445Z,94269.81
2024-03-12T00:23:30.217Z,94267.88
2024-03-12T00:25:59.586Z,94266.69
2024-03-12T00:28:26.250Z,94270.69
2024-03-12T00:30:55.105Z,94286.13
2024-03-12T00:33:22.245Z,94275.75
2024-03-12T00:35:49.052Z,94273.00
2024-03-12T00:38:19.213Z,94276.03
2024-03-12T00:40:46.945Z,94276.53
2024-03-12T00:43:13.832Z,94282.78
2024-03-12T00:45:40.989Z,94278.66
2024-03-12T00:48:10.790Z,94284.72
2024-03-12T00:50:38.332Z,94287.09
2024-03-12T00:53:05.185Z,94287.88
2024-03-12T00:55:32.213Z,94283.66
2024-03-12T00:57:59.659Z,94289.06
2024-03-12T01:00:27.430Z,94287.34
2024-03-12T01:02:55.610Z,94287.66
2024-03-12T01:05:26.729Z,94291.94
2024-03-12T01:07:59.861Z,94291.44
2024-03-12T01:10:30.228Z,94291.94
2024-03-12T01:12:57.913Z,94287.53
2024-03-12T01:15:25.084Z,94289.44
2024-03-12T01:17:54.728Z,94276.25
2024-03-12T01:20:21.989Z,94290.69
2024-03-12T01:22:51.724Z,94290.91
2024-03-12T01:25:19.205Z,94284.25
2024-03-12T01:27:45.965Z,94282.56
2024-03-12T01:30:17.550Z,94290.81
2024-03-12T01:32:46.080Z,94292.38
2024-03-12T01:35:15.947Z,94296.81
2024-03-12T01:37:43.926Z,94292.88
2024-03-12T01:40:31.943Z,94296.59
2024-03-12T01:43:03.716Z,94300.66
2024-03-12T01:45:31.903Z,94302.69
2024-03-12T01:47:59.884Z,94298.19
2024-03-12T01:50:28.428Z,94298.50
2024-03-12T01:52:56.669Z,94291.00
2024-03-12T01:55:23.416Z,94294.19
2024-03-12T01:57:53.091Z,94297.44
2024-03-12T02:00:20.254Z,94304.38
2024-03-12T02:02:56.818Z,94302.91
2024-03-12T02:05:24.045Z,94312.47
2024-03-12T02:07:51.913Z,94316.78
2024-03-12T02:10:20.141Z,94315.31
2024-03-12T02:12:47.372Z,94324.00
2024-03-12T02:15:24.741Z,94325.03
2024-03-12T02:17:54.445Z,94332.03
2024-03-12T02:20:22.976Z,94332.94
2024-03-12T02:22:54.527Z,94337.25
2024-03-12T02:25:21.198Z,94335.69
2024-03-12T02:27:48.032Z,94342.44
2024-03-12T02:30:14.753Z,94343.06
2024-03-12T02:32:41.436Z,94347.25
2024-03-12T02:35:12.795Z,94352.97
2024-03-12T02:37:40.447Z,94351.66
2024-03-12T02:40:14.618Z,94354.78
2024-03-12T02:42:42.641Z,94356.50
2024-03-12T02:45:11.478Z,94351.44
2024-03-12T02:47:38.198Z,94358.84
2024-03-12T02:50:07.642Z,94359.44
2024-03-12T02:52:34.613Z,94354.50
2024-03-12T02:55:02.262Z,94366.69
2024-03-12T02:57:29.139Z,94349.91
2024-03-12T02:59:55.808Z,94353.66
2024-03-12T03:02:22.911Z,94362.97
2024-03-12T03:04:49.602Z,94365.94
2024-03-12T03:07:18.361Z,94366.47
2024-03-12T03:09:45.767Z,94359.63
2024-03-12T03:12:12.700Z,94358.13
2024-03-12T03:14:39.424Z,94361.44
2024-03-12T03:17:08.664Z,94369.25
2024-03-12T03:19:35.458Z,94376.34
2024-03-12T03:22:02.469Z,94369.63
2024-03-12T03:24:29.219Z,94375.50
2024-03-12T03:26:57.430Z,94374.97
2024-03-12T03:29:26.362Z,94374.31
2024-03-12T03:31:53.038Z,94373.28
2024-03-12T03:34:19.736Z,94382.28
2024-03-12T03:36:46.372Z,94372.56
2024-03-12T03:39:13.236Z,94372.03
2024-03-12T03:41:40.149Z,94381.59
2024-03-12T03:44:07.229Z,94382.13
2024-03-12T03:46:34.258Z,94385.19
2024-03-12T03:49:00.955Z,94385.81
2024-03-12T03:51:27.633Z,94396.25
2024-03-12T03:53:54.323Z,94389.28
2024-03-12T03:56:21.204Z,94402.91
2024-03-12T03:58:48.080Z,94405.94
2024-03-12T04:01:15.359Z,94413.16
2024-03-12T04:03:42.696Z,94409.47
2024-03-12T04:06:09.622Z,94409.94
2024-03-12T04:08:36.936Z,94415.22
2024-03-12T04:11:04.574Z,94414.09
2024-03-12T04:13:33.526Z,94415.19
2024-03-12T04:16:00.591Z,94417.41
2024-03-12T04:18:27.589Z,94427.94
2024-03-12T04:20:57.471Z,94428.75
2024-03-12T04:23:24.466Z,94432.03
2024-03-12T04:25:51.117Z,94439.44
2024-03-12T04:28:19.403Z,94438.03
2024-03-12T04:30:46.567Z,94448.06
2024-03-12T04:33:13.283Z,94451.03
2024-03-12T04:35:39.968Z,94457.59
2024-03-12T04:38:09.260Z,94459.13
2024-03-12T04:40:36.023Z,94463.38
2024-03-12T04:43:03.748Z,94458.75
2024-03-12T04:45:30.605Z,94468.50
2024-03-12T04:47:57.528Z,94472.09
2024-03-12T04:50:24.661Z,94474.25
2024-03-12T04:52:51.434Z,94473.09
2024-03-12T04:55:18.154Z,94487.34
2024-03-12T04:57:45.137Z,94485.88
2024-03-12T05:00:15.991Z,94485.53
2024-03-12T05:02:43.549Z,94492.84
2024-03-12T05:05:10.275Z,94497.53
2024-03-12T05:07:36.956Z,94494.66
2024-03-12T05:10:03.817Z,94498.50
2024-03-12T05:12:30.457Z,94506.63
2024-03-12T05:14:57.135Z,94508.31
2024-03-12T05:17:24.003Z,94508.97
2024-03-12T05:19:50.710Z,94508.50
2024-03-12T05:22:17.552Z,94518.44
2024-03-12T05:24:44.292Z,94518.41
2024-03-12T05:27:14.580Z,94521.97
2024-03-12T05:29:44.739Z,94528.03
2024-03-12T05:32:20.777Z,94528.97
2024-03-12T05:34:58.087Z,94524.81
2024-03-12T05:37:31.092Z,94525.91
2024-03-12T05:40:23.981Z,94532.06
2024-03-12T05:43:09.588Z,94534.03
2024-03-12T05:45:54.871Z,94539.31
2024-03-12T05:48:21.654Z,94537.03
2024-03-12T05:50:48.525Z,94539.59
2024-03-12T05:53:15.345Z,94540.00
2024-03-12T05:55:42.876Z,94536.84
2024-03-12T06:00:37.876Z,94543.78
2024-03-12T06:03:04.649Z,94555.03
2024-03-12T06:05:31.731Z,94553.34
2024-03-12T06:08:00.118Z,94556.75
2024-03-12T06:10:27.240Z,94562.28
2024-03-12T06:12:53.926Z,94559.00
2024-03-12T06:15:20.610Z,94566.81
2024-03-12T06:17:47.562Z,94564.94
2024-03-12T06:20:14.676Z,94569.97
2024-03-12T06:22:43.525Z,94579.56
2024-03-12T06:25:11.038Z,94581.38
2024-03-12T06:27:41.682Z,94588.31
2024-03-12T06:30:08.692Z,94588.28
2024-03-12T06:32:35.610Z,94598.13
2024-03-12T06:35:02.373Z,94593.50
2024-03-12T06:37:29.129Z,94596.94
2024-03-12T06:39:56.394Z,94596.56
2024-03-12T06:42:32.180Z,94612.66
2024-03-12T06:45:01.618Z,94603.00
2024-03-12T06:47:30.315Z,94611.72
2024-03-12T06:49:57.153Z,94618.94
2024-03-12T06:52:23.807Z,94607.97
2024-03-12T06:54:51.962Z,94611.38
2024-03-12T06:57:21.275Z,94615.16
2024-03-12T06:59:50.685Z,94623.63
2024-03-12T07:02:18.185Z,94623.41
2024-03-12T07:04:46.762Z,94626.56
2024-03-12T07:07:19.325Z,94636.59
2024-03-12T07:09:50.559Z,94633.50
2024-03-12T07:12:20.336Z,94632.53
2024-03-12T07:14:56.068Z,94633.06
2024-03-12T07:17:23.856Z,94639.28
2024-03-12T07:19:50.965Z,94633.38
2024-03-12T07:22:18.926Z,94633.66
2024-03-12T07:24:46.013Z,94626.78
2024-03-12T07:30:02.097Z,94631.41
2024-03-12T07:32:28.849Z,94624.75
2024-03-12T07:34:55.606Z,94638.28
2024-03-12T07:37:22.339Z,94654.88
2024-03-12T07:39:48.983Z,94638.41
2024-03-12T07:42:20.001Z,94617.22
2024-03-12T07:44:48.875Z,94645.44
2024-03-12T07:47:16.076Z,94640.16
2024-03-12T07:49:43.111Z,94651.25
2024-03-12T07:52:14.597Z,94637.38
2024-03-12T07:54:41.967Z,94650.78
2024-03-12T07:57:12.407Z,94651.91
2024-03-12T07:59:39.113Z,94653.78
2024-03-12T08:02:12.863Z,94648.84
2024-03-12T08:04:43.642Z,94655.34
2024-03-12T08:07:11.274Z,94653.31
2024-03-12T08:09:38.553Z,94655.38
2024-03-12T08:12:05.404Z,94648.97
2024-03-12T08:14:32.339Z,94636.91
2024-03-12T08:16:58.950Z,94650.56
2024-03-12T08:19:26.877Z,94670.78
2024-03-12T08:21:54.222Z,94657.97
2024-03-12T08:24:20.967Z,94665.94
2024-03-12T08:26:48.464Z,94661.28
2024-03-12T08:29:15.993Z,94652.03
2024-03-12T08:31:47.658Z,94660.47
2024-03-12T08:34:18.560Z,94645.44
2024-03-12T08:36:47.292Z,94672.75
2024-03-12T08:39:13.889Z,94661.28
2024-03-12T08:41:41.029Z,94663.06
2024-03-12T08:44:07.893Z,94669.72
2024-03-12T08:46:35.908Z,94652.56
2024-03-12T08:49:02.561Z,94682.25
2024-03-12T08:51:35.486Z,94663.16
2024-03-12T08:54:02.880Z,94677.00
2024-03-12T08:56:32.528Z,94671.13
2024-03-12T08:58:59.356Z,94690.66
2024-03-12T09:01:26.387Z,94673.41
2024-03-12T09:03:53.999Z,94674.88
2024-03-12T09:06:21.566Z,94678.59
2024-03-12T09:08:50.729Z,94674.50
2024-03-12T09:11:21.938Z,94681.13
2024-03-12T09:13:49.043Z,94677.66
2024-03-12T09:16:16.103Z,94690.25
2024-03-12T09:18:45.974Z,94671.69
2024-03-12T09:21:16.732Z,94690.06
2024-03-12T09:23:53.464Z,94681.72
2024-03-12T09:26:29.381Z,94690.16
2024-03-12T09:28:56.599Z,94676.94
2024-03-12T09:31:23.424Z,94686.63
2024-03-12T09:33:52.211Z,94692.34
2024-03-12T09:36:18.897Z,94684.03
2024-03-12T09:38:47.891Z,94672.59
2024-03-12T09:41:17.547Z,94688.44
2024-03-12T09:43:45.327Z,94708.06
2024-03-12T09:46:13.156Z,94657.81
2024-03-12T09:48:40.556Z,94692.31
2024-03-12T09:51:08.101Z,94706.34
2024-03-12T09:53:34.746Z,94679.06
2024-03-12T09:56:07.032Z,94675.84
2024-03-12T09:58:37.934Z,94697.19
2024-03-12T10:01:05.046Z,94672.47
2024-03-12T10:03:32.443Z,94669.56
2024-03-12T10:05:59.216Z,94669.69
2024-03-12T10:08:32.963Z,94688.78
2024-03-12T10:11:03.309Z,94682.91
2024-03-12T10:13:30.606Z,94695.88
2024-03-12T10:16:00.539Z,94692.00
2024-03-12T10:18:28.675Z,94700.47
2024-03-12T10:20:57.222Z,94706.16
2024-03-12T10:23:26.837Z,94703.88
2024-03-12T10:25:54.732Z,94704.63
2024-03-12T10:28:26.225Z,94702.78
2024-03-12T10:30:53.249Z,94705.66
2024-03-12T10:33:22.153Z,94700.66
2024-03-12T10:35:49.093Z,94705.63
2024-03-12T10:38:25.641Z,94702.22
2024-03-12T10:40:53.219Z,94690.44
2024-03-12T10:43:25.365Z,94703.25
2024-03-12T10:45:52.628Z,94685.16
2024-03-12T10:48:20.199Z,94708.06
2024-03-12T10:50:47.170Z,94671.97
2024-03-12T10:53:13.787Z,94675.75
2024-03-12T10:55:41.822Z,94702.00
2024-03-12T10:58:10.508Z,94703.94
2024-03-12T11:00:40.771Z,94683.97
2024-03-12T11:03:10.594Z,94685.38
2024-03-12T11:05:40.585Z,94694.88
2024-03-12T11:08:08.803Z,94702.31
2024-03-12T11:10:35.981Z,94698.97
2024-03-12T11:13:03.550Z,94700.97
2024-03-12T11:15:32.791Z,94712.34
2024-03-12T11:17:59.577Z,94711.28
2024-03-12T11:20:28.317Z,94714.16
2024-03-12T11:23:01.459Z,94716.72
2024-03-12T11:25:33.825Z,94705.47
2024-03-12T11:28:21.928Z,94703.03
2024-03-12T11:31:09.198Z,94707.78
2024-03-12T11:33:38.851Z,94707.59
2024-03-12T11:36:25.218Z,94703.34
2024-03-12T11:38:55.610Z,94705.38
2024-03-12T11:41:22.649Z,94714.09
2024-03-12T11:43:50.000Z,94708.09
2024-03-12T11:46:36.664Z,94706.22
2024-03-12T11:49:03.743Z,94708.66
2024-03-12T11:51:50.600Z,94707.56
2024-03-12T11:54:37.223Z,94703.59
2024-03-12T11:57:04.734Z,94694.44
2024-03-12T11:59:31.408Z,94700.56
2024-03-12T12:02:00.833Z,94689.53
2024-03-12T12:04:27.714Z,94704.47
2024-03-12T12:06:57.682Z,94694.88
2024-03-12T12:09:24.378Z,94706.13
2024-03-12T12:11:51.841Z,94693.94
2024-03-12T12:14:18.683Z,94700.19
2024-03-12T12:16:45.422Z,94706.72
2024-03-12T12:19:19.066Z,94683.84
2024-03-12T12:21:49.158Z,94663.63
2024-03-12T12:24:16.359Z,94670.19
2024-03-12T12:26:44.980Z,94712.06
2024-03-12T12:29:12.044Z,94690.75
2024-03-12T12:31:40.445Z,94699.00
2024-03-12T12:34:09.921Z,94690.34
2024-03-12T12:36:38.042Z,94689.63
2024-03-12T12:39:11.239Z,94679.78
2024-03-12T12:41:47.009Z,94700.19
2024-03-12T12:44:18.538Z,94705.50
2024-03-12T12:46:49.502Z,94700.66
2024-03-12T12:49:16.624Z,94705.41
2024-03-12T12:51:46.122Z,94675.50
2024-03-12T12:54:16.515Z,94697.16
2024-03-12T12:56:44.804Z,94698.84
2024-03-12T12:59:13.372Z,94699.34
2024-03-12T13:01:40.295Z,94707.69
2024-03-12T13:04:26.256Z,94723.38
2024-03-12T13:06:55.308Z,94705.03
2024-03-12T13:09:30.360Z,94710.78
2024-03-12T13:11:57.593Z,94712.47
2024-03-12T13:14:24.679Z,94698.31
2024-03-12T13:16:51.280Z,94698.06
2024-03-12T13:19:19.825Z,94701.06
2024-03-12T13:21:46.592Z,94721.53
2024-03-12T13:24:13.420Z,94700.59
2024-03-12T13:26:40.048Z,94696.22
2024-03-12T13:29:06.806Z,94713.13
2024-03-12T13:31:33.578Z,94709.16
2024-03-12T13:34:00.365Z,94708.47
2024-03-12T13:36:28.426Z,94705.06
2024-03-12T13:38:55.033Z,94699.34
2024-03-12T13:41:25.899Z,94711.03
2024-03-12T13:43:53.496Z,94721.63
2024-03-12T13:46:20.802Z,94722.59
2024-03-12T13:48:48.276Z,94721.84
2024-03-12T13:51:15.175Z,94733.78
2024-03-12T13:53:43.418Z,94717.06
2024-03-12T13:56:11.333Z,94714.19
2024-03-12T13:58:43.839Z,94718.13
2024-03-12T14:01:14.715Z,94726.56
2024-03-12T14:03:41.861Z,94714.28
2024-03-12T14:06:10.654Z,94725.28
2024-03-12T14:08:37.729Z,94725.59
2024-03-12T14:11:05.069Z,94732.19
2024-03-12T14:13:32.932Z,94726.59
2024-03-12T14:16:00.361Z,94731.03
2024-03-12T14:18:27.900Z,94727.84
2024-03-12T14:20:56.317Z,94730.09
2024-03-12T14:23:23.467Z,94742.56
2024-03-12T14:25:50.416Z,94726.59
2024-03-12T14:28:17.310Z,94745.94
2024-03-12T14:30:45.703Z,94738.03
2024-03-12T14:33:13.154Z,94740.88
2024-03-12T14:35:40.293Z,94738.81
2024-03-12T14:38:07.150Z,94734.56
2024-03-12T14:40:33.805Z,94746.72
2024-03-12T14:43:01.691Z,94748.34
2024-03-12T14:45:30.940Z,94751.25
2024-03-12T14:47:58.049Z,94750.84
2024-03-12T14:50:25.203Z,94744.72
2024-03-12T14:52:52.135Z,94746.25
2024-03-12T14:55:19.076Z,94750.72
2024-03-12T14:57:45.848Z,94745.94
2024-03-12T15:00:17.549Z,94753.25
2024-03-12T15:02:44.410Z,94753.38
2024-03-12T15:05:14.061Z,94753.25
2024-03-12T15:07:43.663Z,94747.19
2024-03-12T15:10:11.998Z,94752.81
2024-03-12T15:12:41.106Z,94757.31
2024-03-12T15:15:11.990Z,94757.03
2024-03-12T15:17:43.265Z,94758.28
2024-03-12T15:20:11.543Z,94748.28
2024-03-12T15:22:38.676Z,94762.56
2024-03-12T15:25:07.990Z,94761.84
2024-03-12T15:27:35.696Z,94761.63
2024-03-12T15:30:02.579Z,94763.16
2024-03-12T15:32:29.368Z,94766.91
2024-03-12T15:34:57.833Z,94772.44
2024-03-12T15:37:24.874Z,94768.72
2024-03-12T15:39:51.610Z,94772.34
2024-03-12T15:42:18.480Z,94775.09
2024-03-12T15:44:45.180Z,94782.13
2024-03-12T15:47:11.872Z,94776.63
2024-03-12T15:49:40.551Z,94776.13
2024-03-12T15:52:07.442Z,94780.94
2024-03-12T15:54:34.427Z,94783.59
2024-03-12T15:57:01.290Z,94781.34
2024-03-12T15:59:27.979Z,94780.56
2024-03-12T16:01:54.957Z,94778.25
2024-03-12T16:04:21.836Z,94784.81
2024-03-12T16:06:48.563Z,94777.00
2024-03-12T16:09:18.266Z,94776.16
2024-03-12T16:11:44.983Z,94785.94
2024-03-12T16:14:13.313Z,94778.25
2024-03-12T16:16:40.761Z,94786.63
2024-03-12T16:19:08.113Z,94778.69
2024-03-12T16:21:35.626Z,94781.31
2024-03-12T16:24:02.552Z,94784.59
2024-03-12T16:26:29.518Z,94780.34
2024-03-12T16:28:56.206Z,94795.69
2024-03-12T16:31:22.985Z,94792.75
2024-03-12T16:33:49.837Z,94793.47
2024-03-12T16:36:19.365Z,94790.69
2024-03-12T16:38:48.826Z,94797.03
2024-03-12T16:41:15.789Z,94793.53
2024-03-12T16:43:42.940Z,94795.41
2024-03-12T16:46:10.911Z,94798.09
2024-03-12T16:48:40.949Z,94796.19
2024-03-12T16:51:08.486Z,94791.38
2024-03-12T16:53:35.259Z,94796.84
2024-03-12T16:56:02.410Z,94795.53
2024-03-12T16:58:30.283Z,94796.44
2024-03-12T17:00:59.559Z,94801.28
2024-03-12T17:03:27.275Z,94798.34
2024-03-12T17:05:55.976Z,94799.81
2024-03-12T17:08:23.297Z,94810.47
2024-03-12T17:10:50.264Z,94804.22
2024-03-12T17:13:20.389Z,94799.66
2024-03-12T17:15:50.694Z,94811.94
2024-03-12T17:18:19.086Z,94811.50
2024-03-12T17:20:45.916Z,94805.63
2024-03-12T17:23:13.985Z,94819.94
2024-03-12T17:25:40.914Z,94825.84
2024-03-12T17:28:11.027Z,94824.59
2024-03-12T17:30:38.105Z,94826.97
2024-03-12T17:33:07.528Z,94837.44
2024-03-12T17:35:34.689Z,94838.53
2024-03-12T17:38:02.311Z,94846.81
2024-03-12T17:40:29.733Z,94853.47
2024-03-12T17:42:56.545Z,94847.28
2024-03-12T17:45:24.934Z,94864.75
2024-03-12T17:47:52.755Z,94868.63
2024-03-12T17:50:23.964Z,94873.28
2024-03-12T17:53:08.894Z,94867.13
2024-03-12T17:55:36.099Z,94868.91
2024-03-12T17:58:05.042Z,94873.81
2024-03-12T18:00:32.806Z,94884.16
2024-03-12T18:03:00.547Z,94890.69
2024-03-12T18:05:27.778Z,94886.38
2024-03-12T18:07:54.687Z,94885.78
2024-03-12T18:10:23.877Z,94882.94
2024-03-12T18:12:50.738Z,94886.84
2024-03-12T18:15:17.639Z,94885.09
2024-03-12T18:17:44.961Z,94879.22
2024-03-12T18:20:13.412Z,94880.09
2024-03-12T18:22:40.978Z,94876.22
2024-03-12T18:25:11.064Z,94873.59
2024-03-12T18:27:41.385Z,94882.06
2024-03-12T18:30:08.901Z,94883.91
2024-03-12T18:32:36.102Z,94886.63
2024-03-12T18:35:02.766Z,94889.31
2024-03-12T18:37:29.674Z,94886.00
2024-03-12T18:39:56.961Z,94890.94
2024-03-12T18:42:23.672Z,94889.72
2024-03-12T18:44:50.292Z,94890.38
2024-03-12T18:47:17.481Z,94883.50
2024-03-12T18:49:45.532Z,94886.06
2024-03-12T18:52:12.387Z,94883.59
2024-03-12T18:54:39.228Z,94892.00
2024-03-12T18:57:06.060Z,94890.00
2024-03-12T18:59:32.921Z,94895.94
2024-03-12T19:02:07.315Z,94892.06
2024-03-12T19:04:36.191Z,94892.19
2024-03-12T19:07:02.970Z,94900.31
2024-03-12T19:09:32.504Z,94898.22
2024-03-12T19:12:01.695Z,94904.97
2024-03-12T19:14:29.031Z,94910.25
2024-03-12T19:16:55.778Z,94903.06
2024-03-12T19:19:25.140Z,94906.56
2024-03-12T19:21:52.112Z,94910.00
2024-03-12T19:24:18.925Z,94909.03
2024-03-12T19:26:45.622Z,94906.13
2024-03-12T19:29:13.240Z,94904.38
2024-03-12T19:31:40.090Z,94912.78
2024-03-12T19:34:06.919Z,94903.59
2024-03-12T19:36:34.078Z,94911.84
2024-03-12T19:39:00.932Z,94915.22
2024-03-12T19:41:27.695Z,94912.69
2024-03-12T19:43:55.018Z,94919.25
2024-03-12T19:46:21.816Z,94917.34
2024-03-12T19:48:49.556Z,94922.22
2024-03-12T19:51:17.271Z,94922.03
2024-03-12T19:53:44.461Z,94921.81
2024-03-12T19:56:13.214Z,94925.72
2024-03-12T19:58:40.426Z,94926.06
2024-03-12T20:01:07.264Z,94929.03
2024-03-12T20:03:34.029Z,94921.59
2024-03-12T20:06:00.753Z,94922.59
2024-03-12T20:08:28.075Z,94924.13
2024-03-12T20:10:56.952Z,94925.03
2024-03-12T20:13:23.821Z,94932.81
2024-03-12T20:15:50.780Z,94920.13
2024-03-12T20:18:17.595Z,94921.53
2024-03-12T20:20:44.845Z,94921.84
2024-03-12T20:23:12.076Z,94919.75
2024-03-12T20:25:38.931Z,94924.63
2024-03-12T20:28:10.724Z,94924.91
2024-03-12T20:30:39.528Z,94929.09
2024-03-12T20:33:09.358Z,94925.41
2024-03-12T20:35:38.846Z,94926.19
2024-03-12T20:38:09.939Z,94929.31
2024-03-12T20:40:36.850Z,94928.19
2024-03-12T20:43:03.804Z,94929.72
2024-03-12T20:45:30.845Z,94931.31
2024-03-12T20:47:57.655Z,94934.88
2024-03-12T20:50:24.952Z,94938.16
2024-03-12T20:52:52.166Z,94921.72
2024-03-12T20:55:19.928Z,94928.31
2024-03-12T20:57:48.829Z,94937.38
2024-03-12T21:00:24.713Z,94931.59
2024-03-12T21:02:54.762Z,94935.28
2024-03-12T21:05:21.544Z,94935.97
2024-03-12T21:07:48.368Z,94936.75
2024-03-12T21:10:15.101Z,94936.44
2024-03-12T21:12:43.770Z,94927.13
2024-03-12T21:15:11.006Z,94925.97
2024-03-12T21:17:38.948Z,94925.78
2024-03-12T21:20:13.089Z,94933.16
2024-03-12T21:22:40.257Z,94939.50
2024-03-12T21:25:08.200Z,94926.34
2024-03-12T21:27:35.026Z,94933.41
2024-03-12T21:30:06.334Z,94939.69
2024-03-12T21:32:34.304Z,94942.25
2024-03-12T21:35:01.095Z,94939.88
2024-03-12T21:37:27.827Z,94933.94
2024-03-12T21:39:54.566Z,94932.88
2024-03-12T21:42:23.078Z,94929.63
2024-03-12T21:44:49.788Z,94935.66
2024-03-12T21:47:16.507Z,94927.44
2024-03-12T21:49:43.101Z,94928.78
2024-03-12T21:52:09.947Z,94926.63
2024-03-12T21:54:36.636Z,94914.13
2024-03-12T21:57:03.376Z,94925.94
2024-03-12T21:59:31.634Z,94927.72
2024-03-12T22:02:00.597Z,94924.53
2024-03-12T22:04:27.447Z,94928.34
2024-03-12T22:06:55.717Z,94925.41
2024-03-12T22:09:23.134Z,94924.00
2024-03-12T22:14:20.764Z,94907.13
2024-03-12T22:16:47.367Z,94911.56
2024-03-12T22:19:15.560Z,94908.59
2024-03-12T22:21:48.884Z,94904.50
2024-03-12T22:24:23.164Z,94905.41
2024-03-12T22:26:51.833Z,94914.50
2024-03-12T22:29:19.087Z,94910.50
2024-03-12T22:31:46.622Z,94902.72
2024-03-12T22:34:13.442Z,94904.59
2024-03-12T22:36:40.179Z,94901.03
2024-03-12T22:39:09.998Z,94898.53
2024-03-12T22:41:37.385Z,94905.63
2024-03-12T22:44:05.705Z,94904.00
2024-03-12T22:46:32.411Z,94904.38
2024-03-12T22:48:59.116Z,94904.50
2024-03-12T22:51:25.854Z,94910.69
2024-03-12T22:53:52.600Z,94912.59
2024-03-12T22:56:20.562Z,94902.38
2024-03-12T22:58:47.530Z,94903.41
2024-03-12T23:01:17.842Z,94897.38
2024-03-12T23:03:45.706Z,94902.44
2024-03-12T23:06:12.701Z,94907.66
2024-03-12T23:08:40.051Z,94905.66
2024-03-12T23:11:06.833Z,94903.06
2024-03-12T23:13:35.197Z,94899.56
2024-03-12T23:16:03.327Z,94898.47
2024-03-12T23:18:31.372Z,94901.06
2024-03-12T23:20:58.172Z,94890.16
2024-03-12T23:23:24.974Z,94905.34
2024-03-12T23:25:52.531Z,94894.19
2024-03-12T23:28:21.483Z,94895.34
2024-03-12T23:30:48.847Z,94886.03
2024-03-12T23:33:15.685Z,94891.44
2024-03-12T23:35:43.346Z,94888.44
2024-03-12T23:38:12.546Z,94887.03
2024-03-12T23:40:39.634Z,94882.53
2024-03-12T23:43:06.436Z,94886.34
2024-03-12T23:45:33.491Z,94876.22
2024-03-12T23:48:03.621Z,94881.34
2024-03-12T23:50:30.700Z,94878.56
2024-03-12T23:52:57.577Z,94874.09
2024-03-12T23:55:25.797Z,94874.31
2024-03-12T23:57:54.556Z,94871.44
